Flight Track Log - Related Links

Times and Time Zones

All times are in EDT time to prevent confusion due to time zone crossing. See the N21EK flight status page for this flight to view local times or setup timezone preferences in your user account.

Time Position Orientation Groundspeed Altitude Reporting Facility
EDT Latitude Longitude Course Direction KTS MPH feet Rate Location/Type
Sun 05:01:51 PM 26.4606 -80.0800 340° North 150 173 6,500  Level Miami Center
Sun 05:02:51 PM 26.5036 -80.1092 329° Northwest 167 192 8,700 1,750 Climbing Miami Center
Sun 05:03:51 PM 26.5131 -80.1558 283° West 195 224 10,000 650 Climbing Miami Center
Sun 05:04:51 PM 26.5239 -80.2303 279° West 226 260 10,000 1,050 Level Miami Center
Sun 05:05:51 PM 26.5533 -80.3100 292° West 246 283 12,100 2,000 Climbing Miami Center
Sun 05:06:51 PM 26.5753 -80.3594 296° West 225 259 14,000 1,350 Climbing Miami Center
Sun 05:07:51 PM 26.6111 -80.4350 298° West 234 269 14,800 1,050 Climbing Miami Center
Sun 05:08:51 PM 26.6386 -80.5008 295° West 252 290 16,100 1,200 Climbing Miami Center
Sun 05:09:51 PM 26.6722 -80.5786 296° West 252 290 17,200 950 Climbing Miami Center
Sun 05:10:51 PM 26.7019 -80.6422 298° West 257 296 18,000 400 Climbing Miami Center
Sun 05:11:51 PM 26.7392 -80.7272 296° West 265 305 18,000  Level Miami Center
Sun 05:12:51 PM 26.7747 -80.8006 299° West 288 331 18,000  Level Miami Center
Sun 05:13:51 PM 26.8142 -80.8856 297° West 296 341 18,000  Level Miami Center
Sun 05:14:51 PM 26.8536 -80.9778 296° West 302 348 18,000 -350 Level Miami Center
Sun 05:15:51 PM 26.8908 -81.0628 296° West 302 348 17,300 -800 Descending Miami Center
Sun 05:16:51 PM 26.9278 -81.1481 296° West 302 348 16,400 -900 Descending Miami Center
Sun 05:17:51 PM 26.9631 -81.2264 297° West 302 348 15,500 -1,050 Descending Miami Center
Sun 05:18:51 PM 26.9961 -81.3044 295° West 296 341 14,300 -750 Descending Miami Center
Sun 05:19:51 PM 27.0314 -81.3850 296° West 291 335 14,000 -650 Descending Miami Center
Sun 05:20:51 PM 27.0661 -81.4703 295° West 291 335 13,000 -1,250 Descending Miami Center
Sun 05:21:51 PM 27.1053 -81.5558 297° West 298 343 11,500 -1,500 Descending Miami Center
Sun 05:22:51 PM 27.1439 -81.6508 295° West 304 350 10,000 -1,200 Descending Miami Center
Sun 05:23:51 PM 27.1786 -81.7339 295° West 304 350 9,100 -1,350 Descending Miami Center
Sun 05:24:51 PM 27.1906 -81.8136 280° West 292 336 7,300 -1,400 Descending Miami Center
Sun 05:25:51 PM 27.1986 -81.8864 277° West 260 299 6,300 -900 Descending Miami Center
Sun 05:26:51 PM 27.2083 -81.9661 278° West 255 293 5,500 -650 Descending Miami Center
Sun 05:27:51 PM 27.2325 -82.0489 288° West 262 302 5,000 -250 Descending Miami Center
Sun 05:28:51 PM 27.2608 -82.1250 293° West 267 307 5,000  Level Miami Center
Sun 05:29:51 PM 27.2708 -82.1978 279° West 255 293 5,000 -600 Level Miami Center
Sun 05:30:51 PM 27.2683 -82.2678 268° West 234 269 3,800 -1,350 Descending Miami Center
Sun 05:31:51 PM 27.2614 -82.3375 264° West 229 264 2,300 -1,000 Descending Miami Center
Sun 05:32:51 PM 27.2717 -82.3964 281° West 216 249 1,800 -250 Descending Miami Center
Sun 05:33:51 PM 27.2931 -82.4394 299° West 167 192 1,800 -47 Level Miami Center
Sun 05:34:58 PM 27.3333 -82.4833 316° Northwest 132 152 1,700 -298 Descending Tampa TRACON
Sun 05:35:52 PM 27.3500 -82.5000 318° Northwest 120 138 1,200 -579 Descending Tampa TRACON
Sun 05:36:52 PM 27.3667 -82.5167 318° Northwest 112 129 600 -600 Descending Tampa TRACON
Sun 05:38:00 PM 27.3833 -82.5500 281° West  Level FlightAware Approximate
Sun 05:45:00 PM 27.3954 -82.5544 281° West  Level Estimated
Sun 05:46:00 PM 27.3954 -82.5544 281° West  Level Estimated
Sun 05:47:00 PM 27.3954 -82.5544 281° West  Level Estimated

Login

Don't have an account? Register now (free) for customized features, flight alerts, and more!